Stations météo

réclame
Mon MeteoGroup
Hoerby, Suède (2623): Température de l'air & dewpoint: 19.03.2019 11:00:00 - 25.03.2019 11:00:00 (CET)Hoerby, Suède (2623): Vitesse du vent & gusts: 19.03.2019 11:00:00 - 25.03.2019 11:00:00 (CET)Hoerby, Suède (2623): Direction du vent: 19.03.2019 11:00:00 - 25.03.2019 11:00:00 (CET)Hoerby, Suède (2623): visibility: 19.03.2019 11:00:00 - 25.03.2019 11:00:00 (CET)Hoerby, Suède (2623): Quantités de précipitations: 19.03.2019 11:00:00 - 25.03.2019 11:00:00 (CET)
Date & Time tt [°C] td [°C] ff [km/h] ff [knt] fx [km/h] fx [knt] dd vv [km] rr [mm]
25.03.2019 11:00:00 4,3 3,0 9 5 19 11 NE 14 0,0
25.03.2019 10:00:00 3,9 2,3 6 3 11 6 NE 40 0,0
25.03.2019 09:00:00 3,3 2,1 4 2 14 8 SE 18 0,0
25.03.2019 08:00:00 2,7 1,8 7 4 15 8 SE 5 0,5
25.03.2019 07:00:00 3,0 2,0 7 4 - - S 10 0,1
25.03.2019 06:00:00 3,0 2,3 5 3 20 11 SSE 10 1,0
25.03.2019 05:00:00 3,3 2,3 10 6 - - S 10 0,2
25.03.2019 04:00:00 3,3 2,1 9 5 22 12 SSW 11 0,1
25.03.2019 03:00:00 3,1 1,9 10 6 22 12 SW 11 0,0
25.03.2019 02:00:00 2,7 1,1 8 5 - - SW 15 0,0
25.03.2019 01:00:00 3,2 1,4 10 5 23 13 WSW 16 0,0
25.03.2019 00:00:00 3,5 0,5 7 4 - - WSW 18 0,0
24.03.2019 23:00:00 3,9 0,4 7 4 24 13 WSW 27 0,0
24.03.2019 22:00:00 4,7 1,2 11 6 24 13 WSW 21 0,0
24.03.2019 21:00:00 4,9 1,2 10 6 21 12 WSW 20 0,1
24.03.2019 20:00:00 5,3 1,8 11 6 21 11 SW 18 0,0
24.03.2019 19:00:00 5,5 -0,6 8 4 28 15 SW 32 0,0
24.03.2019 18:00:00 6,4 -1,5 11 6 28 15 WSW 39 0,0
24.03.2019 17:00:00 7,4 -1,1 14 7 - - W 30 0,0
24.03.2019 16:00:00 7,9 0,8 14 8 33 18 WSW 25 0,0
24.03.2019 15:00:00 7,5 0,2 14 8 31 17 W 25 0,0
24.03.2019 14:00:00 7,8 0,0 14 8 - - W 23 0,0
24.03.2019 13:00:00 7,9 1,3 16 8 32 17 W 18 0,0
24.03.2019 12:00:00 7,0 3,1 14 8 28 15 W 13 0,0
24.03.2019 11:00:00 5,7 3,0 10 6 21 11 W 12 0,0
24.03.2019 10:00:00 4,6 2,8 10 5 21 11 W 9 0,0
24.03.2019 09:00:00 3,9 2,4 6 4 - - W 9 0,0
24.03.2019 08:00:00 3,4 2,1 8 4 16 9 W 9 0,0
24.03.2019 07:00:00 2,8 1,6 5 3 14 8 W 8 0,0
24.03.2019 06:00:00 2,7 1,5 6 3 14 8 W 9 0,0
24.03.2019 05:00:00 2,7 1,4 5 3 19 11 W 9 0,0
24.03.2019 04:00:00 2,5 1,2 5 3 20 11 W 9 0,0
24.03.2019 03:00:00 2,6 1,1 9 5 22 12 WNW 10 0,0
24.03.2019 02:00:00 3,1 1,0 9 5 22 12 W 11 0,0
24.03.2019 01:00:00 3,5 0,7 10 6 - - W 13 0,0
24.03.2019 00:00:00 3,5 0,5 12 6 27 14 WNW 15 0,0
23.03.2019 23:00:00 4,0 0,7 10 5 - - WNW 16 0,0
23.03.2019 22:00:00 4,3 0,6 11 6 28 15 W 17 0,0
23.03.2019 21:00:00 4,7 0,3 11 6 24 13 W 19 0,0
23.03.2019 20:00:00 5,2 0,4 9 5 26 14 W 19 0,0
23.03.2019 19:00:00 5,8 -0,1 10 5 36 19 NW 20 0,0
23.03.2019 18:00:00 7,2 0,4 13 7 36 19 NW 20 0,0
23.03.2019 17:00:00 8,3 1,2 19 10 - - WNW 18 0,0
23.03.2019 16:00:00 9,2 1,6 16 9 39 21 WNW 20 0,0
23.03.2019 15:00:00 9,5 1,2 17 9 35 19 WNW 22 0,0
23.03.2019 14:00:00 9,5 2,6 18 10 33 18 W 20 0,0
23.03.2019 13:00:00 9,6 4,8 14 8 26 14 W 14 0,0
23.03.2019 12:00:00 8,5 6,0 11 6 - - W 6 0,0
23.03.2019 11:00:00 6,8 6,1 10 6 27 15 W 2,6 0,0
23.03.2019 10:00:00 6,8 5,7 9 5 21 12 W 2,9 0,0
23.03.2019 09:00:00 7,0 6,1 9 5 19 10 W 2,5 0,0
23.03.2019 08:00:00 6,9 6,8 5 3 21 11 W 1,7 0,0
23.03.2019 07:00:00 6,6 6,5 8 4 - - WSW - 0,0
23.03.2019 06:00:00 6,7 6,6 11 6 24 13 SW 0,6 0,0
23.03.2019 05:00:00 7,3 6,9 12 7 20 11 SW 1,3 0,0
23.03.2019 04:00:00 7,6 7,2 9 5 18 10 SSW 2,0 0,0
23.03.2019 03:00:00 7,2 7,1 6 3 - - SSW 1,5 0,0
23.03.2019 02:00:00 7,0 6,7 5 3 20 11 SSW 1,2 0,0
23.03.2019 01:00:00 6,9 6,8 11 6 19 10 SW 3,2 0,0
23.03.2019 00:00:00 6,7 6,6 8 5 18 10 SSW 1,1 0,0
22.03.2019 23:00:00 6,5 6,2 8 4 18 10 SSW 1,8 0,0
22.03.2019 22:00:00 6,0 5,7 8 4 24 13 SSW 2,6 0,0
22.03.2019 21:00:00 5,6 5,1 11 6 29 16 SSW 4,1 0,0
22.03.2019 20:00:00 5,8 4,8 12 6 29 16 S 10 0,0
22.03.2019 19:00:00 6,1 4,6 15 8 27 14 S 12 0,0
22.03.2019 18:00:00 6,1 3,9 17 9 24 13 S 24 0,0
22.03.2019 17:00:00 6,6 3,7 11 6 20 11 SSE 22 0,0
22.03.2019 16:00:00 7,0 4,7 10 5 21 12 S 27 0,0
22.03.2019 15:00:00 6,9 4,7 11 6 - - SSE 27 0,0
22.03.2019 14:00:00 8,0 4,9 13 7 24 13 S 25 0,0
22.03.2019 13:00:00 8,8 5,5 14 7 - - S 27 0,0
22.03.2019 12:00:00 8,5 5,2 15 8 24 13 S 26 0,0
22.03.2019 11:00:00 8,6 5,3 14 7 21 11 S 24 0,0
22.03.2019 10:00:00 8,8 5,0 9 5 20 11 SE 29 0,0
22.03.2019 09:00:00 8,0 4,6 4 2 10 5 SE 23 0,0
22.03.2019 08:00:00 6,3 4,1 5 3 8 4 S 24 0,0
22.03.2019 07:00:00 4,5 3,3 3 1 - - E 16 0,0
22.03.2019 06:00:00 5,1 3,4 3 2 10 5 E 25 0,0
22.03.2019 05:00:00 5,7 4,3 0 0 16 9 N 17 0,0
22.03.2019 04:00:00 5,9 4,4 4 2 17 9 NNW 15 0,0
22.03.2019 03:00:00 6,5 5,1 8 4 29 16 NW 14 0,0
22.03.2019 02:00:00 6,8 5,7 10 5 - - NW 12 0,0
22.03.2019 01:00:00 7,2 6,3 13 7 32 18 NW 6 0,0
22.03.2019 00:00:00 8,2 7,3 11 6 - - WNW 7 0,0
21.03.2019 23:00:00 8,4 7,3 14 8 29 15 W 6 0,0
21.03.2019 22:00:00 8,4 7,5 11 6 24 13 W 4,6 0,0
21.03.2019 21:00:00 8,2 7,4 10 5 23 12 W 3,9 0,0
21.03.2019 20:00:00 8,8 7,7 9 5 26 14 W 5 0,0
21.03.2019 19:00:00 9,1 7,9 10 6 - - WSW 6 0,0
21.03.2019 18:00:00 8,8 7,7 11 6 34 18 W 3,5 0,0
21.03.2019 17:00:00 8,8 7,9 15 8 27 15 W 3,4 0,0
21.03.2019 16:00:00 9,0 7,9 11 6 32 17 W 3,9 0,0
21.03.2019 15:00:00 9,3 8,1 16 8 - - WSW 4,1 0,0
21.03.2019 14:00:00 8,9 7,8 16 8 33 18 WSW 3,7 0,0
21.03.2019 13:00:00 9,8 9,3 15 8 32 18 W 4,5 0,0
21.03.2019 12:00:00 8,2 8,1 10 5 - - WSW 2,0 0,0
21.03.2019 11:00:00 7,5 7,4 14 7 30 16 WSW 1,4 0,0
21.03.2019 10:00:00 7,0 6,9 13 7 28 15 WSW 0,9 0,0
21.03.2019 09:00:00 6,6 6,5 12 6 - - WSW 0,4 0,0
21.03.2019 08:00:00 6,3 6,1 14 8 29 16 WSW 1,2 0,0
21.03.2019 07:00:00 5,9 5,8 10 6 19 10 WSW 2,0 0,0
21.03.2019 06:00:00 5,4 5,3 8 4 24 13 WSW 0,3 0,0
21.03.2019 05:00:00 5,1 5,0 10 5 - - WSW 0,2 0,0
21.03.2019 04:00:00 4,9 4,8 13 7 27 15 WSW 0,2 0,0
21.03.2019 03:00:00 5,3 5,2 11 6 22 12 W 0,3 0,0
21.03.2019 02:00:00 5,3 5,2 8 4 18 10 W 0,3 0,0
21.03.2019 01:00:00 5,2 5,1 7 4 17 9 W 0,3 0,0
21.03.2019 00:00:00 5,1 4,8 5 3 18 10 SW 0,4 0,0
20.03.2019 23:00:00 5,5 5,1 6 4 - - W 4,0 0,0
20.03.2019 22:00:00 5,8 5,2 8 5 19 10 WNW 5 0,0
20.03.2019 21:00:00 6,4 5,7 9 5 16 9 WNW 7 0,0
20.03.2019 20:00:00 6,3 5,4 6 3 17 9 W 8 0,0
20.03.2019 19:00:00 7,0 6,1 7 4 - - W 8 0,0
20.03.2019 18:00:00 7,3 6,1 7 4 21 12 W 9 0,0
20.03.2019 17:00:00 7,7 6,6 11 6 23 12 W 8 0,0
20.03.2019 16:00:00 7,1 6,8 9 5 - - W 3,2 0,0
20.03.2019 15:00:00 6,0 5,7 10 5 29 16 W 0,8 0,0
20.03.2019 14:00:00 5,8 5,4 14 7 29 16 WSW 1,5 0,0
20.03.2019 13:00:00 5,4 4,8 14 7 - - WSW 2,1 0,0
20.03.2019 12:00:00 5,0 4,4 13 7 34 18 WSW 1,8 0,1
20.03.2019 11:00:00 5,1 4,4 13 7 31 17 WSW 3,3 0,0
20.03.2019 10:00:00 4,5 3,0 12 7 27 14 SW 9 0,0
20.03.2019 09:00:00 4,0 1,5 11 6 23 12 SW 19 0,0
20.03.2019 08:00:00 3,0 1,0 9 5 22 12 SW 22 0,0
20.03.2019 07:00:00 2,0 0,5 8 4 15 8 SSW 20 0,0
20.03.2019 06:00:00 1,3 0,1 4 2 10 6 SSW 17 0,0
20.03.2019 05:00:00 0,3 -0,4 4 2 - - S 15 0,0
20.03.2019 04:00:00 -0,3 -1,4 3 1 7 4 SSW 17 0,0
20.03.2019 03:00:00 0,0 -1,6 3 2 - - WSW 26 0,0
20.03.2019 02:00:00 -0,7 -3,1 0 0 8 4 N 41 0,0
20.03.2019 01:00:00 -0,8 -4,2 0 0 7 4 N 50 0,0
20.03.2019 00:00:00 -1,3 -4,5 4 2 6 3 SE 50 0,0
19.03.2019 23:00:00 -0,8 -4,0 0 0 7 4 N 49 0,0
19.03.2019 22:00:00 -0,9 -3,6 0 0 - - N 50 0,0
19.03.2019 21:00:00 1,1 -3,8 5 3 13 7 WNW 50 0,0
19.03.2019 20:00:00 1,4 -3,5 5 3 19 11 WNW 50 0,0
19.03.2019 19:00:00 2,4 -3,9 6 3 28 15 NW 50 0,0
19.03.2019 18:00:00 3,6 -4,4 11 6 31 17 WNW 50 0,0
19.03.2019 17:00:00 4,8 -4,0 16 9 - - WNW 50 0,0
19.03.2019 16:00:00 5,4 -4,2 16 9 37 20 WNW 44 0,0
19.03.2019 15:00:00 5,7 -5,0 16 8 34 19 WNW 44 0,0
19.03.2019 14:00:00 5,7 -4,7 18 10 32 18 WNW 35 0,0
19.03.2019 13:00:00 6,0 -5,0 16 8 - - WNW 45 0,0
19.03.2019 12:00:00 5,4 -5,7 18 10 32 18 NW 35 0,0
19.03.2019 11:00:00 4,7 -5,9 18 10 34 18 NW 44 0,0

tt = Température de l'air
td = dewpoint
ff = Vitesse du vent
fx = gusts
dd = Direction du vent
vv = visibility
rr = Quantités de précipitations

stations d'obs. à proximité